Terminal Aerodrome Forecast
Issued by NWS Wilmington, OH

Current Version | Previous Version | Graphics & Text | Print | Product List | Glossary On
Versions: 1 2 3 4 5 6 7 8 9 10 11 12 13 14
000
FTUS41 KILN 181136
TAFILN
TAF
KILN 181136Z 1812/1912 10008KT P6SM BKN050
     FM182100 16010KT P6SM VCSH BKN040
     FM190000 25014G25KT P6SM -SHRA OVC015
     FM190300 28015G25KT P6SM VCSH OVC012
     FM190800 30016G25KT P6SM OVC008=

USA.gov is the U.S. government's official web portal to all federal, state and local government web resources and services.